Time;durP1;ratioP1;P1;durP2;ratioP2;P2;SDS_P1;SDS_P2;PMS_P1;PMS_P2;Temp;Humidity;BMP_temperature;BMP_pressure;BME280_temperature;BME280_humidity;BME280_pressure;Samples;Min_cycle;Max_cycle;Signal;HPM_P1;HPM_P2
2023/05/19 00:02:14;;;;;;;;;;;21.50;41.10;;;;;;5066650;28;19942;-55
2023/05/19 00:04:40;;;;;;;;;;;21.50;41.00;;;;;;5078253;28;20303;-54
2023/05/19 00:07:07;;;;;;;;;;;21.40;40.70;;;;;;5087702;28;19912;-55
2023/05/19 00:09:32;;;;;;;;;;;21.40;40.70;;;;;;5083323;28;19922;-54
2023/05/19 00:11:58;;;;;;;;;;;21.40;40.80;;;;;;5065884;28;20361;-54
2023/05/19 00:14:23;;;;;;;;;;;21.40;40.80;;;;;;5088872;28;20372;-54
2023/05/19 00:16:49;;;;;;;;;;;21.40;41.00;;;;;;5086107;28;19916;-55
2023/05/19 00:19:15;;;;;;;;;;;21.40;40.80;;;;;;5083870;28;19997;-54
2023/05/19 00:21:41;;;;;;;;;;;21.40;40.90;;;;;;5088323;28;20307;-54
2023/05/19 00:24:06;;;;;;;;;;;21.40;41.00;;;;;;5073677;28;19908;-54
2023/05/19 00:26:31;;;;;;;;;;;21.40;40.80;;;;;;5088254;28;20459;-54
2023/05/19 00:28:57;;;;;;;;;;;21.30;40.80;;;;;;5085573;28;19985;-54
2023/05/19 00:31:22;;;;;;;;;;;21.30;40.80;;;;;;5081144;28;19912;-55
2023/05/19 00:33:48;;;;;;;;;;;21.30;40.80;;;;;;5043986;28;19955;-54
2023/05/19 00:36:13;;;;;;;;;;;21.30;40.80;;;;;;5079739;28;19962;-54
2023/05/19 00:38:39;;;;;;;;;;;21.30;40.80;;;;;;5081386;28;19912;-54
2023/05/19 00:41:04;;;;;;;;;;;21.30;40.90;;;;;;5065313;28;19956;-54
2023/05/19 00:43:30;;;;;;;;;;;21.30;41.00;;;;;;5082688;28;19919;-54
2023/05/19 00:45:56;;;;;;;;;;;21.20;40.90;;;;;;5083738;28;19916;-54
2023/05/19 00:48:21;;;;;;;;;;;21.30;41.00;;;;;;5080999;28;20120;-54
2023/05/19 00:50:47;;;;;;;;;;;21.20;40.90;;;;;;5085975;28;19924;-54
2023/05/19 00:53:13;;;;;;;;;;;21.20;40.90;;;;;;5069549;28;19916;-54
2023/05/19 00:55:39;;;;;;;;;;;21.20;41.00;;;;;;5091442;28;20269;-54
2023/05/19 00:58:05;;;;;;;;;;;21.20;40.90;;;;;;5069803;28;21872;-54
2023/05/19 01:00:30;;;;;;;;;;;21.20;40.90;;;;;;5085953;28;19919;-54
2023/05/19 01:02:56;;;;;;;;;;;21.20;40.90;;;;;;5084826;28;20511;-54
2023/05/19 01:05:21;;;;;;;;;;;21.20;40.90;;;;;;5065234;28;19912;-54
2023/05/19 01:07:50;;;;;;;;;;;21.10;40.80;;;;;;5090495;28;20400;-54
2023/05/19 01:10:16;;;;;;;;;;;21.10;40.80;;;;;;5092776;28;19912;-54
2023/05/19 01:12:41;;;;;;;;;;;21.10;40.90;;;;;;5082918;28;19916;-54
2023/05/19 01:15:08;;;;;;;;;;;21.10;40.90;;;;;;5067132;28;19978;-54
2023/05/19 01:17:41;;;;;;;;;;;21.10;40.90;;;;;;5071798;28;20002;-55
2023/05/19 01:20:10;;;;;;;;;;;21.10;41.10;;;;;;5056925;28;19908;-54
2023/05/19 01:22:41;;;;;;;;;;;21.10;40.90;;;;;;5079342;28;19918;-54
2023/05/19 01:25:16;;;;;;;;;;;21.20;41.00;;;;;;5086058;28;20336;-54
2023/05/19 01:27:46;;;;;;;;;;;21.10;40.90;;;;;;5072306;28;19947;-54
2023/05/19 01:30:32;;;;;;;;;;;21.20;41.00;;;;;;5089168;28;20287;-54
2023/05/19 01:32:59;;;;;;;;;;;21.20;41.10;;;;;;5041376;28;19916;-54
2023/05/19 01:35:24;;;;;;;;;;;21.30;41.00;;;;;;5079865;28;19970;-53
2023/05/19 01:37:50;;;;;;;;;;;21.40;40.90;;;;;;5078470;28;19916;-54
2023/05/19 01:40:16;;;;;;;;;;;21.50;40.80;;;;;;5079869;28;19965;-54
2023/05/19 01:42:44;;;;;;;;;;;21.40;41.00;;;;;;5053123;28;19912;-54
2023/05/19 01:45:09;;;;;;;;;;;21.40;40.90;;;;;;5079476;28;20022;-54
2023/05/19 01:47:37;;;;;;;;;;;21.50;40.80;;;;;;5055385;28;19991;-54
2023/05/19 01:50:02;;;;;;;;;;;21.50;40.70;;;;;;5084393;28;19913;-54
2023/05/19 01:52:28;;;;;;;;;;;21.50;40.30;;;;;;5087893;28;20288;-54
2023/05/19 01:54:53;;;;;;;;;;;21.50;40.60;;;;;;5091986;28;19981;-54
2023/05/19 01:57:23;;;;;;;;;;;21.50;40.40;;;;;;5084822;28;19970;-54
2023/05/19 02:00:08;;;;;;;;;;;21.60;40.60;;;;;;5067207;28;20065;-54
2023/05/19 02:02:51;;;;;;;;;;;21.50;40.50;;;;;;5075437;28;19998;-54
2023/05/19 02:05:30;;;;;;;;;;;21.50;40.40;;;;;;5072497;28;20010;-55
2023/05/19 02:08:11;;;;;;;;;;;21.50;40.40;;;;;;5071411;28;19954;-54
2023/05/19 02:10:38;;;;;;;;;;;21.50;40.50;;;;;;5091408;28;19912;-54
2023/05/19 02:13:03;;;;;;;;;;;21.50;40.30;;;;;;5071456;28;19934;-54
2023/05/19 02:15:30;;;;;;;;;;;21.50;40.60;;;;;;5069682;28;19927;-54
2023/05/19 02:17:56;;;;;;;;;;;21.50;40.50;;;;;;5072610;28;19966;-54
2023/05/19 02:20:22;;;;;;;;;;;21.40;41.00;;;;;;5087926;28;20528;-54
2023/05/19 02:22:47;;;;;;;;;;;21.40;40.40;;;;;;5074211;28;20287;-54
2023/05/19 02:25:13;;;;;;;;;;;21.40;40.40;;;;;;5086769;28;19913;-54
2023/05/19 02:27:38;;;;;;;;;;;21.30;40.30;;;;;;5061459;28;19912;-54
2023/05/19 02:30:04;;;;;;;;;;;21.30;40.70;;;;;;5085692;28;20300;-54
2023/05/19 02:32:30;;;;;;;;;;;21.30;40.50;;;;;;5086797;28;19919;-54
2023/05/19 02:34:56;;;;;;;;;;;21.20;40.30;;;;;;5055631;28;19913;-54
2023/05/19 02:37:24;;;;;;;;;;;21.20;40.40;;;;;;5079198;28;19912;-54
2023/05/19 02:39:49;;;;;;;;;;;21.20;40.60;;;;;;5086438;28;19971;-54
2023/05/19 02:42:17;;;;;;;;;;;21.20;40.40;;;;;;5085885;28;19943;-54
2023/05/19 02:44:42;;;;;;;;;;;21.10;40.40;;;;;;5084120;28;19912;-54
2023/05/19 02:47:08;;;;;;;;;;;21.10;40.40;;;;;;5085507;28;19928;-54
2023/05/19 02:49:36;;;;;;;;;;;21.10;40.60;;;;;;5080257;28;19916;-54
2023/05/19 02:52:02;;;;;;;;;;;21.10;40.70;;;;;;5085932;28;19959;-54
2023/05/19 02:54:31;;;;;;;;;;;21.10;40.70;;;;;;5083718;28;19978;-54
2023/05/19 02:56:56;;;;;;;;;;;21.00;40.70;;;;;;5083480;28;19920;-55
2023/05/19 02:59:22;;;;;;;;;;;21.00;40.70;;;;;;5079209;28;19927;-54
2023/05/19 03:01:47;;;;;;;;;;;21.00;40.60;;;;;;5080610;28;19939;-54
2023/05/19 03:04:13;;;;;;;;;;;21.10;40.70;;;;;;5085349;28;19912;-54
2023/05/19 03:06:38;;;;;;;;;;;21.00;40.60;;;;;;5080798;28;20019;-54
2023/05/19 03:09:04;;;;;;;;;;;21.00;40.50;;;;;;5087467;28;19927;-55
2023/05/19 03:11:30;;;;;;;;;;;21.00;40.70;;;;;;5086195;28;20368;-54
2023/05/19 03:13:55;;;;;;;;;;;21.00;40.60;;;;;;5084653;28;19923;-54
2023/05/19 03:16:21;;;;;;;;;;;21.00;40.70;;;;;;5084394;28;20478;-54
2023/05/19 03:18:46;;;;;;;;;;;21.00;40.60;;;;;;5081424;28;19923;-54
2023/05/19 03:21:12;;;;;;;;;;;20.90;40.60;;;;;;5084101;28;19995;-54
2023/05/19 03:23:37;;;;;;;;;;;20.90;40.60;;;;;;5079828;28;19925;-54
2023/05/19 03:26:03;;;;;;;;;;;21.00;40.70;;;;;;5083395;28;19916;-54
2023/05/19 03:28:28;;;;;;;;;;;21.00;40.70;;;;;;5082849;28;20406;-54
2023/05/19 03:30:54;;;;;;;;;;;21.00;40.70;;;;;;5079796;28;20395;-54
2023/05/19 03:33:19;;;;;;;;;;;21.00;40.70;;;;;;5055070;28;20384;-54
2023/05/19 03:35:45;;;;;;;;;;;21.00;40.60;;;;;;5080674;28;19951;-54
2023/05/19 03:38:10;;;;;;;;;;;21.00;40.70;;;;;;5085364;28;19921;-54
2023/05/19 03:40:36;;;;;;;;;;;21.00;40.60;;;;;;5080184;28;20302;-54
2023/05/19 03:43:01;;;;;;;;;;;21.00;40.60;;;;;;5083869;28;19916;-54
2023/05/19 03:45:27;;;;;;;;;;;21.00;40.70;;;;;;5079246;28;19916;-54
2023/05/19 03:47:52;;;;;;;;;;;21.00;40.70;;;;;;5047442;28;20011;-55
2023/05/19 03:50:18;;;;;;;;;;;21.00;40.70;;;;;;5076888;28;20257;-54
2023/05/19 03:52:45;;;;;;;;;;;21.00;40.60;;;;;;5091646;28;20372;-54
2023/05/19 03:55:10;;;;;;;;;;;21.00;40.60;;;;;;5077422;28;19912;-54
2023/05/19 03:57:36;;;;;;;;;;;21.00;40.70;;;;;;5093800;28;19912;-54
2023/05/19 04:00:02;;;;;;;;;;;21.00;40.70;;;;;;5091532;28;19916;-54
2023/05/19 04:02:28;;;;;;;;;;;21.00;40.70;;;;;;5073126;28;19913;-54
2023/05/19 04:04:54;;;;;;;;;;;21.00;40.60;;;;;;5089797;28;19955;-55
2023/05/19 04:07:19;;;;;;;;;;;21.00;40.60;;;;;;5069864;28;19970;-54
2023/05/19 04:09:45;;;;;;;;;;;21.00;40.60;;;;;;5094317;28;19934;-54
2023/05/19 04:12:10;;;;;;;;;;;21.00;40.60;;;;;;5092971;28;19914;-54
2023/05/19 04:14:36;;;;;;;;;;;21.00;40.70;;;;;;5073832;28;19913;-54
2023/05/19 04:17:01;;;;;;;;;;;20.90;40.60;;;;;;5091220;28;19927;-54
2023/05/19 04:19:26;;;;;;;;;;;21.00;40.70;;;;;;5093409;28;19908;-55
2023/05/19 04:21:52;;;;;;;;;;;21.00;40.70;;;;;;5092779;28;19954;-54
2023/05/19 04:24:17;;;;;;;;;;;20.90;40.70;;;;;;5093155;28;19912;-54
2023/05/19 04:26:45;;;;;;;;;;;20.90;40.60;;;;;;5093807;28;19909;-54
2023/05/19 04:29:12;;;;;;;;;;;20.90;40.70;;;;;;5058043;28;19912;-54
2023/05/19 04:31:39;;;;;;;;;;;20.90;40.60;;;;;;5084509;28;19962;-54
2023/05/19 04:34:06;;;;;;;;;;;20.90;40.70;;;;;;5092221;28;19977;-54
2023/05/19 04:36:32;;;;;;;;;;;20.90;40.70;;;;;;5077533;28;19912;-54
2023/05/19 04:39:01;;;;;;;;;;;20.90;40.60;;;;;;5084604;28;19920;-54
2023/05/19 04:41:26;;;;;;;;;;;20.90;40.60;;;;;;5082565;28;19916;-54
2023/05/19 04:43:52;;;;;;;;;;;20.90;40.80;;;;;;5081104;28;19919;-55
2023/05/19 04:46:22;;;;;;;;;;;20.90;40.70;;;;;;5079861;28;19966;-54
2023/05/19 04:48:49;;;;;;;;;;;20.90;40.70;;;;;;5080916;28;19911;-56
2023/05/19 04:51:14;;;;;;;;;;;20.90;40.70;;;;;;5077355;28;19927;-55
2023/05/19 04:53:40;;;;;;;;;;;20.90;41.30;;;;;;5076574;28;19924;-54
2023/05/19 04:56:06;;;;;;;;;;;20.90;40.70;;;;;;5050986;28;19923;-54
2023/05/19 04:58:32;;;;;;;;;;;20.90;40.90;;;;;;5076736;28;19916;-55
2023/05/19 05:00:57;;;;;;;;;;;20.80;40.90;;;;;;5072631;28;19916;-54
2023/05/19 05:03:23;;;;;;;;;;;20.90;41.20;;;;;;5076396;28;19912;-54
2023/05/19 05:05:48;;;;;;;;;;;20.90;40.60;;;;;;5060068;28;19919;-54
2023/05/19 05:08:15;;;;;;;;;;;20.80;40.60;;;;;;5083657;28;20372;-54
2023/05/19 05:10:40;;;;;;;;;;;20.80;40.70;;;;;;5073267;28;19913;-54
2023/05/19 05:13:06;;;;;;;;;;;20.80;40.80;;;;;;5058420;28;20269;-54
2023/05/19 05:15:31;;;;;;;;;;;20.80;40.90;;;;;;5052969;28;20283;-54
2023/05/19 05:17:57;;;;;;;;;;;20.80;40.90;;;;;;5077640;28;19919;-54
2023/05/19 05:20:23;;;;;;;;;;;20.80;40.90;;;;;;5078672;28;19923;-55
2023/05/19 05:22:48;;;;;;;;;;;20.80;40.90;;;;;;5082926;28;20510;-54
2023/05/19 05:25:15;;;;;;;;;;;20.90;41.00;;;;;;5076167;28;19920;-54
2023/05/19 05:27:40;;;;;;;;;;;20.90;40.90;;;;;;5080486;28;19923;-54
2023/05/19 05:30:06;;;;;;;;;;;20.90;41.00;;;;;;5062104;28;19916;-54
2023/05/19 05:32:31;;;;;;;;;;;20.90;40.80;;;;;;5076845;28;19917;-54
2023/05/19 05:34:57;;;;;;;;;;;20.90;40.60;;;;;;5063243;28;20383;-54
2023/05/19 05:37:22;;;;;;;;;;;21.00;40.60;;;;;;5043517;28;19920;-54
2023/05/19 05:39:48;;;;;;;;;;;21.10;40.70;;;;;;5076766;28;19912;-54
2023/05/19 05:42:14;;;;;;;;;;;21.20;40.80;;;;;;5086967;28;19921;-54
2023/05/19 05:44:40;;;;;;;;;;;21.20;40.80;;;;;;5083840;28;20250;-54
2023/05/19 05:47:06;;;;;;;;;;;21.20;40.80;;;;;;5086096;28;19981;-54
2023/05/19 05:49:32;;;;;;;;;;;21.20;40.60;;;;;;5085901;28;20003;-54
2023/05/19 05:51:57;;;;;;;;;;;21.20;40.50;;;;;;5068254;28;19924;-54
2023/05/19 05:54:23;;;;;;;;;;;21.30;40.40;;;;;;5082595;28;19916;-54
2023/05/19 05:56:49;;;;;;;;;;;21.30;40.40;;;;;;5089859;28;19912;-54
2023/05/19 05:59:15;;;;;;;;;;;21.30;40.30;;;;;;5060103;28;19971;-54
2023/05/19 06:01:42;;;;;;;;;;;21.30;40.40;;;;;;5085500;28;19920;-54
2023/05/19 06:04:08;;;;;;;;;;;21.30;40.50;;;;;;5091295;28;19977;-55
2023/05/19 06:06:34;;;;;;;;;;;21.30;40.40;;;;;;5080182;28;20000;-54
2023/05/19 06:09:00;;;;;;;;;;;21.40;40.30;;;;;;5082244;28;19912;-54
2023/05/19 06:11:25;;;;;;;;;;;21.40;41.00;;;;;;5086517;28;19973;-54
2023/05/19 06:13:51;;;;;;;;;;;21.30;40.40;;;;;;5057594;28;19916;-54
2023/05/19 06:16:16;;;;;;;;;;;21.30;40.50;;;;;;5092213;28;19963;-55
2023/05/19 06:18:42;;;;;;;;;;;21.30;40.40;;;;;;5076145;28;19935;-54
2023/05/19 06:21:09;;;;;;;;;;;21.40;40.30;;;;;;5068527;28;20292;-54
2023/05/19 06:23:34;;;;;;;;;;;21.50;40.30;;;;;;5086090;28;19952;-54
2023/05/19 06:26:00;;;;;;;;;;;21.50;40.20;;;;;;5083664;28;19943;-54
2023/05/19 06:28:25;;;;;;;;;;;21.50;40.20;;;;;;5078994;28;19913;-54
2023/05/19 06:30:51;;;;;;;;;;;21.40;40.30;;;;;;5091799;28;20015;-54
2023/05/19 06:33:16;;;;;;;;;;;21.40;40.30;;;;;;5071784;28;20368;-54
2023/05/19 06:35:42;;;;;;;;;;;21.50;40.30;;;;;;5093365;28;20382;-55
2023/05/19 06:38:07;;;;;;;;;;;21.50;40.20;;;;;;5091127;28;19912;-54
2023/05/19 06:40:33;;;;;;;;;;;21.50;40.20;;;;;;5086906;28;19912;-54
2023/05/19 06:42:58;;;;;;;;;;;21.50;40.20;;;;;;5084667;28;20050;-54
2023/05/19 06:45:23;;;;;;;;;;;21.40;40.20;;;;;;5081617;28;19974;-54
2023/05/19 06:47:49;;;;;;;;;;;21.40;40.60;;;;;;5056133;28;19924;-54
2023/05/19 06:50:15;;;;;;;;;;;21.50;40.30;;;;;;5085113;28;19916;-55
2023/05/19 06:52:40;;;;;;;;;;;21.50;40.20;;;;;;5083337;28;19919;-54
2023/05/19 06:55:06;;;;;;;;;;;21.60;40.20;;;;;;5087978;28;19918;-54
2023/05/19 06:57:31;;;;;;;;;;;21.50;40.20;;;;;;5081026;28;20357;-54
2023/05/19 06:59:57;;;;;;;;;;;21.50;40.20;;;;;;5084728;28;19934;-54
2023/05/19 07:02:22;;;;;;;;;;;21.50;40.30;;;;;;5062293;28;20034;-54
2023/05/19 07:04:50;;;;;;;;;;;21.50;40.30;;;;;;5090498;28;19938;-54
2023/05/19 07:07:15;;;;;;;;;;;21.50;40.30;;;;;;5083842;28;19919;-54
2023/05/19 07:09:40;;;;;;;;;;;21.50;40.20;;;;;;5057233;28;20010;-54
2023/05/19 07:12:06;;;;;;;;;;;21.50;40.20;;;;;;5086101;28;20006;-54
2023/05/19 07:14:31;;;;;;;;;;;21.50;40.30;;;;;;5085915;28;19920;-54
2023/05/19 07:16:57;;;;;;;;;;;21.50;40.30;;;;;;5068225;28;19912;-54
2023/05/19 07:19:22;;;;;;;;;;;21.50;40.40;;;;;;5084414;28;19912;-54
2023/05/19 07:21:48;;;;;;;;;;;21.50;40.30;;;;;;5057624;28;19955;-54
2023/05/19 07:24:13;;;;;;;;;;;21.60;40.40;;;;;;5075976;28;20562;-54
2023/05/19 07:26:39;;;;;;;;;;;21.60;40.40;;;;;;5086887;28;19977;-55
2023/05/19 07:29:05;;;;;;;;;;;21.60;40.60;;;;;;5086966;28;19923;-55
2023/05/19 07:31:30;;;;;;;;;;;21.60;40.80;;;;;;5088514;28;19922;-55
2023/05/19 07:33:56;;;;;;;;;;;21.60;41.10;;;;;;5086236;28;19924;-55
2023/05/19 07:36:21;;;;;;;;;;;21.60;41.00;;;;;;5082376;28;20832;-54
2023/05/19 07:38:47;;;;;;;;;;;21.60;41.00;;;;;;5082869;28;20362;-54
2023/05/19 07:41:12;;;;;;;;;;;21.60;41.20;;;;;;5071944;28;19912;-55
2023/05/19 07:43:37;;;;;;;;;;;21.60;41.20;;;;;;5089074;28;19920;-54
2023/05/19 07:46:03;;;;;;;;;;;21.60;41.20;;;;;;5084363;28;19923;-54
2023/05/19 07:48:29;;;;;;;;;;;21.60;41.20;;;;;;5090002;28;20335;-54
2023/05/19 07:50:54;;;;;;;;;;;21.60;41.20;;;;;;5056780;28;20042;-54
2023/05/19 07:53:21;;;;;;;;;;;21.60;41.20;;;;;;5088430;28;20356;-54
2023/05/19 07:55:46;;;;;;;;;;;21.60;41.20;;;;;;5077370;28;19912;-55
2023/05/19 07:58:12;;;;;;;;;;;21.60;41.20;;;;;;5090809;28;19960;-54
2023/05/19 08:00:37;;;;;;;;;;;21.60;41.60;;;;;;5094221;28;19963;-54
2023/05/19 08:03:03;;;;;;;;;;;21.60;41.10;;;;;;5095959;28;19912;-55
2023/05/19 08:05:28;;;;;;;;;;;21.60;41.20;;;;;;5087821;28;20284;-54
2023/05/19 08:07:55;;;;;;;;;;;21.60;41.20;;;;;;5087739;28;20260;-54
2023/05/19 08:10:20;;;;;;;;;;;21.60;41.20;;;;;;5072469;28;20299;-55
2023/05/19 08:12:46;;;;;;;;;;;21.70;41.20;;;;;;5087552;28;19912;-55
2023/05/19 08:15:11;;;;;;;;;;;21.70;41.10;;;;;;5084501;28;20272;-56
2023/05/19 08:17:37;;;;;;;;;;;21.70;41.20;;;;;;5089517;28;20347;-55
2023/05/19 08:20:04;;;;;;;;;;;21.70;41.30;;;;;;5065324;28;19912;-55
2023/05/19 08:22:30;;;;;;;;;;;21.80;41.30;;;;;;5084785;28;20010;-54
2023/05/19 08:24:55;;;;;;;;;;;21.80;41.20;;;;;;5088084;28;20010;-54
2023/05/19 08:27:21;;;;;;;;;;;21.90;41.30;;;;;;5086552;28;19916;-55
2023/05/19 08:29:46;;;;;;;;;;;21.80;41.50;;;;;;5067275;28;19918;-55
2023/05/19 08:32:12;;;;;;;;;;;21.80;41.40;;;;;;5088131;28;20313;-54
2023/05/19 08:34:37;;;;;;;;;;;21.80;41.40;;;;;;5090651;28;20291;-54
2023/05/19 08:37:03;;;;;;;;;;;21.90;41.40;;;;;;5063584;28;19995;-55
2023/05/19 08:39:28;;;;;;;;;;;21.90;41.40;;;;;;5072555;28;19939;-56
2023/05/19 08:41:54;;;;;;;;;;;21.90;41.50;;;;;;5075887;28;19920;-55
2023/05/19 08:44:20;;;;;;;;;;;21.90;41.40;;;;;;5067904;28;19962;-55
2023/05/19 08:46:46;;;;;;;;;;;21.90;41.60;;;;;;5071516;28;19924;-55
2023/05/19 08:49:12;;;;;;;;;;;21.90;41.50;;;;;;5074976;28;19916;-55
2023/05/19 08:51:47;;;;;;;;;;;22.00;41.40;;;;;;5079854;28;19931;-54
2023/05/19 08:54:13;;;;;;;;;;;22.00;41.40;;;;;;5058200;28;19931;-55
2023/05/19 08:56:39;;;;;;;;;;;22.00;41.40;;;;;;5077010;28;20823;-55
2023/05/19 08:59:04;;;;;;;;;;;22.00;41.60;;;;;;5055799;28;20006;-54
2023/05/19 09:01:29;;;;;;;;;;;22.00;41.70;;;;;;5062467;28;19919;-55
2023/05/19 09:03:56;;;;;;;;;;;22.00;41.60;;;;;;5080364;28;20393;-55
2023/05/19 09:06:21;;;;;;;;;;;22.00;41.50;;;;;;5068765;28;19912;-55
2023/05/19 09:08:47;;;;;;;;;;;22.10;41.60;;;;;;5086947;28;19965;-55
2023/05/19 09:11:13;;;;;;;;;;;22.10;41.40;;;;;;5081786;28;20022;-55
2023/05/19 09:13:38;;;;;;;;;;;22.10;41.60;;;;;;5082284;28;20022;-54
2023/05/19 09:16:04;;;;;;;;;;;22.10;41.60;;;;;;5079667;28;19920;-55
2023/05/19 09:18:30;;;;;;;;;;;22.10;41.60;;;;;;5061075;28;19942;-55
2023/05/19 09:20:58;;;;;;;;;;;22.10;41.50;;;;;;5058039;28;20388;-55
2023/05/19 09:23:25;;;;;;;;;;;22.20;41.60;;;;;;5087318;28;19920;-55
2023/05/19 09:25:50;;;;;;;;;;;22.20;41.50;;;;;;5048774;28;19916;-55
2023/05/19 09:28:26;;;;;;;;;;;22.20;41.70;;;;;;5083423;28;19919;-55
2023/05/19 09:31:09;;;;;;;;;;;22.30;41.80;;;;;;5080152;28;19916;-54
2023/05/19 09:33:39;;;;;;;;;;;22.30;41.60;;;;;;5081604;28;19960;-55
2023/05/19 09:36:05;;;;;;;;;;;22.30;41.60;;;;;;5071727;28;19927;-55
2023/05/19 09:38:30;;;;;;;;;;;22.30;41.60;;;;;;5088090;28;19912;-55
2023/05/19 09:40:56;;;;;;;;;;;22.40;41.90;;;;;;5089197;28;21048;-55
2023/05/19 09:43:22;;;;;;;;;;;22.30;41.90;;;;;;5082597;28;19916;-56
2023/05/19 09:45:48;;;;;;;;;;;22.30;41.80;;;;;;5082728;28;19912;-54
2023/05/19 09:48:14;;;;;;;;;;;22.40;41.70;;;;;;5064543;28;19935;-56
2023/05/19 09:50:41;;;;;;;;;;;22.40;41.70;;;;;;5082400;28;19976;-55
2023/05/19 09:53:07;;;;;;;;;;;22.50;41.80;;;;;;5064046;28;19916;-55
2023/05/19 09:55:33;;;;;;;;;;;22.50;41.70;;;;;;5089059;28;19973;-55
2023/05/19 09:58:03;;;;;;;;;;;22.50;41.70;;;;;;5059878;28;20344;-55
2023/05/19 10:00:29;;;;;;;;;;;22.50;41.60;;;;;;5092556;28;19966;-55
2023/05/19 10:02:56;;;;;;;;;;;22.60;41.50;;;;;;5083187;28;19920;-55
2023/05/19 10:05:21;;;;;;;;;;;22.60;41.60;;;;;;5091105;28;19955;-54
2023/05/19 10:07:51;;;;;;;;;;;22.60;41.70;;;;;;5086701;28;19951;-55
2023/05/19 10:10:16;;;;;;;;;;;22.60;41.70;;;;;;5092032;28;20291;-55
2023/05/19 10:12:42;;;;;;;;;;;22.60;41.60;;;;;;5073896;28;19912;-55
2023/05/19 10:15:16;;;;;;;;;;;22.60;41.60;;;;;;5082641;28;19919;-55
2023/05/19 10:17:42;;;;;;;;;;;22.70;41.60;;;;;;5091593;28;20104;-55
2023/05/19 10:20:09;;;;;;;;;;;22.70;41.60;;;;;;5086878;28;19916;-54
2023/05/19 10:22:36;;;;;;;;;;;22.60;41.60;;;;;;5075543;28;20372;-55
2023/05/19 10:25:02;;;;;;;;;;;22.70;41.80;;;;;;5084682;28;19919;-55
2023/05/19 10:27:27;;;;;;;;;;;22.70;41.60;;;;;;5087540;28;20380;-55
2023/05/19 10:29:53;;;;;;;;;;;22.70;41.70;;;;;;5069478;28;19920;-55
2023/05/19 10:32:19;;;;;;;;;;;22.70;41.80;;;;;;5089421;28;19957;-55
2023/05/19 10:35:04;;;;;;;;;;;22.80;41.80;;;;;;5068035;28;19995;-55
2023/05/19 10:37:38;;;;;;;;;;;22.70;41.90;;;;;;5085938;28;20360;-55
2023/05/19 10:40:08;;;;;;;;;;;22.70;41.70;;;;;;5076125;28;19912;-54
2023/05/19 10:42:39;;;;;;;;;;;22.80;41.80;;;;;;5057275;28;20022;-55
2023/05/19 10:45:08;;;;;;;;;;;22.80;41.80;;;;;;5057228;28;19919;-55
2023/05/19 10:47:34;;;;;;;;;;;22.80;41.90;;;;;;5080866;28;20019;-55
2023/05/19 10:49:59;;;;;;;;;;;22.90;41.80;;;;;;5078847;28;20002;-54
2023/05/19 10:52:27;;;;;;;;;;;22.90;41.40;;;;;;5081834;28;19924;-55
2023/05/19 10:54:53;;;;;;;;;;;22.90;41.20;;;;;;5074567;28;19966;-55
2023/05/19 10:57:19;;;;;;;;;;;22.90;40.90;;;;;;5080931;28;19947;-55
2023/05/19 10:59:44;;;;;;;;;;;23.00;41.00;;;;;;5070585;28;20633;-54
2023/05/19 11:02:10;;;;;;;;;;;23.00;40.70;;;;;;5077470;28;20365;-55
2023/05/19 11:04:46;;;;;;;;;;;23.00;40.50;;;;;;5062043;28;19935;-54
2023/05/19 11:07:16;;;;;;;;;;;23.00;40.30;;;;;;5086897;28;19923;-53
2023/05/19 11:09:41;;;;;;;;;;;23.10;40.20;;;;;;5084479;28;20295;-54
2023/05/19 11:12:07;;;;;;;;;;;23.20;39.70;;;;;;5065960;28;19916;-53
2023/05/19 11:14:33;;;;;;;;;;;23.20;39.30;;;;;;5083691;28;19926;-54
2023/05/19 11:16:58;;;;;;;;;;;23.20;39.50;;;;;;5071531;28;19920;-54
2023/05/19 11:19:30;;;;;;;;;;;23.20;39.50;;;;;;5086091;28;20369;-54
2023/05/19 11:21:56;;;;;;;;;;;23.10;39.30;;;;;;5086957;28;19919;-54
2023/05/19 11:24:38;;;;;;;;;;;23.10;39.50;;;;;;5080338;28;19920;-54
2023/05/19 11:27:17;;;;;;;;;;;23.20;39.30;;;;;;5068669;28;19915;-54
2023/05/19 11:29:43;;;;;;;;;;;23.20;38.80;;;;;;5096380;28;19920;-53
2023/05/19 11:32:08;;;;;;;;;;;23.20;39.00;;;;;;5084441;28;19916;-54
2023/05/19 11:34:34;;;;;;;;;;;23.20;39.30;;;;;;5066497;28;19953;-54
2023/05/19 11:37:00;;;;;;;;;;;23.10;39.40;;;;;;5060423;28;19984;-54
2023/05/19 11:39:25;;;;;;;;;;;23.20;38.90;;;;;;5085096;28;19920;-54
2023/05/19 11:41:50;;;;;;;;;;;23.40;38.70;;;;;;5072541;28;19967;-53
2023/05/19 11:44:16;;;;;;;;;;;23.40;39.30;;;;;;5088244;28;19923;-55
2023/05/19 11:46:42;;;;;;;;;;;23.40;37.70;;;;;;5083148;28;19927;-54
2023/05/19 11:49:07;;;;;;;;;;;23.40;38.70;;;;;;5069953;28;20313;-54
2023/05/19 11:51:33;;;;;;;;;;;23.30;38.30;;;;;;5065084;28;19920;-54
2023/05/19 11:53:58;;;;;;;;;;;23.40;37.80;;;;;;5078667;28;19916;-54
2023/05/19 11:56:24;;;;;;;;;;;23.40;38.00;;;;;;5090823;28;19916;-54
2023/05/19 11:58:51;;;;;;;;;;;23.30;38.40;;;;;;5083752;28;19916;-54
2023/05/19 12:01:17;;;;;;;;;;;23.40;36.50;;;;;;5061595;28;19920;-54
2023/05/19 12:03:42;;;;;;;;;;;23.30;37.80;;;;;;5081240;28;19912;-54
2023/05/19 12:06:09;;;;;;;;;;;23.30;36.90;;;;;;5082314;28;19947;-54
2023/05/19 12:08:35;;;;;;;;;;;23.30;37.20;;;;;;5089861;28;19923;-53
2023/05/19 12:11:00;;;;;;;;;;;23.20;37.50;;;;;;5082771;28;19916;-54
2023/05/19 12:13:26;;;;;;;;;;;23.40;36.40;;;;;;5088828;28;20376;-54
2023/05/19 12:15:52;;;;;;;;;;;23.40;36.90;;;;;;5086410;28;20384;-53
2023/05/19 12:18:17;;;;;;;;;;;23.40;36.50;;;;;;5079969;28;19915;-54
2023/05/19 12:20:43;;;;;;;;;;;23.40;36.30;;;;;;5090349;28;19920;-54
2023/05/19 12:23:08;;;;;;;;;;;23.50;36.40;;;;;;5066896;28;19924;-53
2023/05/19 12:25:34;;;;;;;;;;;23.40;36.10;;;;;;5084522;28;20338;-54
2023/05/19 12:28:01;;;;;;;;;;;23.30;36.40;;;;;;5086261;28;19938;-53
2023/05/19 12:30:30;;;;;;;;;;;23.40;36.50;;;;;;5084366;28;19928;-53
2023/05/19 12:32:56;;;;;;;;;;;23.30;36.70;;;;;;5090453;28;19916;-54
2023/05/19 12:35:24;;;;;;;;;;;23.30;36.70;;;;;;5089578;28;20321;-54
2023/05/19 12:37:50;;;;;;;;;;;23.30;36.70;;;;;;5063592;28;19938;-54
2023/05/19 12:40:15;;;;;;;;;;;23.20;37.20;;;;;;5087613;28;19911;-54
2023/05/19 12:42:43;;;;;;;;;;;23.20;36.60;;;;;;5089999;28;19937;-54
2023/05/19 12:45:08;;;;;;;;;;;23.30;36.60;;;;;;5089949;28;19912;-53
2023/05/19 12:47:34;;;;;;;;;;;23.30;36.60;;;;;;5085336;28;20015;-54
2023/05/19 12:50:00;;;;;;;;;;;23.40;36.30;;;;;;5085913;28;19990;-54
2023/05/19 12:52:27;;;;;;;;;;;23.50;36.40;;;;;;5079436;28;19912;-54
2023/05/19 12:55:06;;;;;;;;;;;23.40;36.90;;;;;;5079161;28;19924;-54
2023/05/19 12:57:35;;;;;;;;;;;23.20;36.90;;;;;;5085728;28;19916;-53
2023/05/19 13:00:01;;;;;;;;;;;23.20;36.80;;;;;;5083399;28;20064;-54
2023/05/19 13:02:26;;;;;;;;;;;23.20;36.50;;;;;;5090024;28;19930;-54
2023/05/19 13:04:53;;;;;;;;;;;23.40;36.30;;;;;;5085357;28;19916;-54
2023/05/19 13:07:19;;;;;;;;;;;23.50;36.40;;;;;;5083951;28;19919;-54
2023/05/19 13:09:44;;;;;;;;;;;23.60;36.30;;;;;;5087253;28;20011;-54
2023/05/19 13:12:09;;;;;;;;;;;23.60;36.00;;;;;;5082588;28;19955;-55
2023/05/19 13:14:36;;;;;;;;;;;23.60;36.40;;;;;;5084110;28;19973;-55
2023/05/19 13:17:02;;;;;;;;;;;23.50;36.40;;;;;;5054789;28;20390;-56
2023/05/19 13:19:27;;;;;;;;;;;23.50;37.10;;;;;;5080768;28;20002;-56
2023/05/19 13:21:53;;;;;;;;;;;23.50;36.70;;;;;;5057017;28;19912;-55
2023/05/19 13:24:18;;;;;;;;;;;23.40;37.10;;;;;;5083933;28;19923;-55
2023/05/19 13:26:44;;;;;;;;;;;23.40;36.60;;;;;;5085294;28;19923;-55
2023/05/19 13:29:10;;;;;;;;;;;23.20;36.70;;;;;;5088376;28;19943;-54
2023/05/19 13:31:36;;;;;;;;;;;23.20;36.80;;;;;;5085247;28;19921;-54
2023/05/19 13:34:01;;;;;;;;;;;23.30;36.60;;;;;;5091054;28;20274;-55
2023/05/19 13:36:27;;;;;;;;;;;23.40;36.30;;;;;;5090035;28;20367;-55
2023/05/19 13:38:52;;;;;;;;;;;23.50;36.50;;;;;;5089434;28;19912;-55
2023/05/19 13:41:21;;;;;;;;;;;23.40;36.30;;;;;;5071085;28;19908;-55
2023/05/19 13:43:47;;;;;;;;;;;23.40;36.30;;;;;;5072473;28;20367;-55
2023/05/19 13:46:12;;;;;;;;;;;23.40;36.80;;;;;;5071416;28;19917;-55
2023/05/19 13:48:38;;;;;;;;;;;23.40;36.30;;;;;;5092111;28;19916;-55
2023/05/19 13:51:03;;;;;;;;;;;23.40;36.30;;;;;;5091728;28;20369;-55
2023/05/19 13:53:29;;;;;;;;;;;23.40;36.30;;;;;;5089320;28;20356;-55
2023/05/19 13:55:55;;;;;;;;;;;23.30;36.20;;;;;;5086344;28;19916;-54
2023/05/19 13:58:21;;;;;;;;;;;23.30;36.20;;;;;;5087945;28;19938;-55
2023/05/19 14:00:46;;;;;;;;;;;23.40;37.30;;;;;;5089888;28;19912;-54
2023/05/19 14:03:14;;;;;;;;;;;23.20;37.00;;;;;;5077121;28;19919;-55
2023/05/19 14:05:40;;;;;;;;;;;23.10;37.00;;;;;;5071830;28;19936;-55
2023/05/19 14:08:05;;;;;;;;;;;23.10;37.10;;;;;;5089294;28;19916;-55
2023/05/19 14:10:31;;;;;;;;;;;23.20;36.60;;;;;;5086632;28;20359;-55
2023/05/19 14:12:58;;;;;;;;;;;23.10;37.00;;;;;;5087644;28;20011;-55